ADDS METAR Data INFO
IDs: Format: Raw Decoded Include TAF

Data at: 0105 UTC 24 Jun 2018

PAJC 240057Z AUTO 25005KT 10SM FEW031 OVC041 13/07 A3014 RMK AO2 SLP206 T01280072
PAJC 232357Z AUTO 27005KT 10SM BKN030 OVC036 12/06 A3013 RMK AO2 SLP205 T01220061 10133 20094 53003
PAJC 232157Z AUTO 03008KT 10SM FEW030 BKN041 12/07 A3013 RMK AO2 SLP202 T01220072
PAJC 232057Z AUTO 03005KT 10SM FEW024 OVC065 13/08 A3013 RMK AO2 SLP202 T01280078 58000
PAJC 231957Z AUTO VRB04KT 10SM OVC048 12/05 A3013 RMK AO2 SLP202 T01170050
PAJC 231857Z AUTO 07005KT 10SM OVC034 10/07 A3013 RMK AO2 SLP202 T01000067
PAJC 231757Z AUTO 00000KT 10SM BKN032 OVC043 09/07 A3013 RMK AO2 RAB34E53 SLP202 P0000 60000 T00940072 10094 20083 51002
PAJC 231738Z AUTO 00000KT 10SM -RA FEW017 OVC030 09/07 A3013 RMK AO2 RAB34 P0000
PAJC 231709Z AUTO 18003KT 10SM SCT012 OVC026 09/07 A3013 RMK AO2
PAJC 231657Z AUTO 00000KT 10SM BKN010 OVC024 09/07 A3013 RMK AO2 SLP202 T00890072
PAJC 231620Z AUTO 20003KT 10SM BKN010 OVC021 09/07 A3013 RMK AO2 CIG 009V014
PAJC 231557Z AUTO 00000KT 10SM FEW010 OVC019 09/08 A3012 RMK AO2 SLP201 T00890078
PAJC 231545Z AUTO 07005KT 10SM SCT010 OVC017 09/08 A3012 RMK AO2
PAJC 231538Z AUTO 05007KT 10SM BKN010 OVC015 09/08 A3012 RMK AO2 CIG 007V013
PAJC 231517Z AUTO VRB03KT 10SM BKN008 BKN013 OVC038 08/07 A3012 RMK AO2 CIG 007V011
PAJC 231502Z AUTO 00000KT 10SM BKN012 BKN016 OVC039 08/07 A3012 RMK AO2
PAJC 231459Z AUTO 00000KT 10SM SCT012 BKN018 OVC037 08/07 A3012 RMK AO2 RAE00B17E33 SLP200 P0000 60000 T00830067 53002
PAJC 231457Z AUTO 18003KT 10SM SCT012 BKN018 OVC037 08/07 A3012 RMK AO2 RAE00B17E33 P0000
PAJC 231453Z AUTO 19004KT 10SM BKN014 BKN020 OVC039 08/07 A3012 RMK AO2 RAE00B17E33 P0000
PAJC 231424Z AUTO 00000KT 10SM -RA SCT009 BKN015 OVC030 08/07 A3012 RMK AO2 RAE00B17 P0000
PAJC 231416Z AUTO 00000KT 10SM BKN009 BKN014 OVC028 08/07 A3012 RMK AO2 RAE00 P0000
PAJC 231357Z AUTO 00000KT 10SM -RA BKN011 BKN026 OVC033 08/07 A3012 RMK AO2 SLP199 P0000 T00830072
PAJC 231351Z AUTO 00000KT 10SM -RA BKN011 BKN026 OVC033 08/07 A3012 RMK AO2 P0000
PAJC 231329Z AUTO 00000KT 10SM -RA SCT013 BKN026 OVC032 08/07 A3011 RMK AO2 P0000
PAJC 231311Z AUTO 00000KT 10SM -RA BKN013 BKN026 OVC036 08/07 A3012 RMK AO2 P0000
PAJC 231300Z AUTO 00000KT 10SM -RA FEW013 BKN026 OVC043 08/07 A3012 RMK AO2 P0000
PAJC 231257Z AUTO 00000KT 10SM -RA SCT026 BKN035 OVC065 08/07 A3012 RMK AO2 RAB15E40B56 SLP199 P0000 T00830067
PAJC 231215Z AUTO 00000KT 10SM -RA BKN030 OVC060 08/07 A3011 RMK AO2 RAB15 P0000
PAJC 231206Z AUTO 00000KT 10SM BKN028 OVC060 09/07 A3011 RMK AO2
PAJC 231157Z AUTO 31003KT 10SM SCT030 OVC065 09/07 A3011 RMK AO2 SLP198 70001 T00890067 10111 20083 51002
PAJC 231057Z AUTO 00000KT 10SM FEW034 OVC065 08/07 A3011 RMK AO2 SLP198 T00830067
PAJC 230957Z AUTO 00000KT 10SM OVC060 09/07 A3011 RMK AO2 SLP197 T00890067
PAJC 230857Z AUTO 08003KT 10SM OVC060 09/06 A3011 RMK AO2 SLP196 T00890061 53006
PAJC 230657Z AUTO 08004KT 10SM FEW049 OVC065 11/06 A3009 RMK AO2 SLP191 T01060056
PAJC 230557Z AUTO 07005KT 10SM OVC049 11/06 A3009 RMK AO2 SLP190 60000 T01110061 10144 20106 53004
PAJC 230457Z AUTO 10004KT 10SM OVC049 12/06 A3009 RMK AO2 SLP188 T01170061
PAJC 230257Z AUTO VRB05KT 10SM BKN035 OVC044 12/07 A3008 RMK AO2 SLP186 T01220067 58001
PAJC 230157Z AUTO 24004KT 10SM FEW029 OVC048 14/08 A3008 RMK AO2 SLP187 T01390083
PAJC 230057Z AUTO 21004KT 10SM OVC031 13/07 A3008 RMK AO2 SLP187 T01280067
PAJC 222357Z AUTO 06005KT 10SM SCT030 SCT035 OVC048 12/07 A3008 RMK AO2 SLP187 60001 T01220067 10133 20094 50001
PAJC 222323Z AUTO VRB04KT 10SM SCT026 BKN050 OVC070 13/07 A3009 RMK AO2
PAJC 222250Z AUTO 03006KT 10SM BKN024 BKN031 OVC055 12/08 A3009 RMK AO2 RAB07E32 P0000
PAJC 222157Z AUTO 03004KT 10SM BKN037 OVC046 11/07 A3009 RMK AO2 RAB14E55 SLP190 P0001 T01060072
PAJC 222122Z AUTO 01005KT 8SM -RA SCT029 OVC037 10/07 A3009 RMK AO2 RAB14 P0001
PAJC 222057Z AUTO 35007KT 10SM BKN027 BKN033 OVC075 12/06 A3008 RMK AO2 SLP186 60000 T01170061 53005
PAJC 222023Z AUTO 01005KT 10SM BKN025 OVC044 11/07 A3008 RMK AO2
PAJC 221940Z AUTO 33004KT 10SM SCT026 OVC039 10/07 A3007 RMK AO2
PAJC 221915Z AUTO 35003KT 10SM BKN026 OVC039 10/06 A3007 RMK AO2
PAJC 221857Z AUTO 00000KT 10SM OVC039 11/05 A3007 RMK AO2 RAB01E25 SLP183 P0000 T01060050
PAJC 221757Z AUTO 00000KT 10SM OVC032 09/06 A3006 RMK AO2 RAE20 SLP181 P0000 60000 T00940056 10094 20083 51013
PAJC 221657Z AUTO 20003KT 10SM -RA OVC032 08/06 A3006 RMK AO2 SLP178 P0000 T00830061
PAJC 221557Z AUTO 00000KT 10SM -RA OVC032 09/06 A3004 RMK AO2 RAB51 SLP173 P0000 T00890061
PAJC 221511Z AUTO 00000KT 10SM BKN032 OVC039 09/06 A3003 RMK AO2
PAJC 221457Z AUTO 00000KT 10SM BKN029 OVC041 09/06 A3003 RMK AO2 SLP168 T00890056 52013
PAJC 221412Z AUTO 23003KT 10SM BKN029 BKN034 OVC042 09/06 A3002 RMK AO2
PAJC 221357Z AUTO 25003KT 10SM SCT035 OVC043 09/06 A3001 RMK AO2 SLP163 T00890056